sensor_id;sensor_type;location;lat;lon;timestamp;pressure;altitude;pressure_sealevel;temperature;humidity
71795;BME280;59641;45.188;5.712;2022-10-23T00:00:31;99298.00;;;19.57;59.84
71795;BME280;59641;45.188;5.712;2022-10-23T00:02:56;99290.09;;;19.61;60.25
71795;BME280;59641;45.188;5.712;2022-10-23T00:05:24;99284.41;;;19.63;60.27
71795;BME280;59641;45.188;5.712;2022-10-23T00:07:51;99278.66;;;19.64;60.25
71795;BME280;59641;45.188;5.712;2022-10-23T00:10:18;99307.78;;;19.64;60.42
71795;BME280;59641;45.188;5.712;2022-10-23T00:12:44;99294.19;;;19.64;60.07
71795;BME280;59641;45.188;5.712;2022-10-23T00:15:14;99290.91;;;19.62;60.38
71795;BME280;59641;45.188;5.712;2022-10-23T00:17:40;99302.91;;;19.61;60.43
71795;BME280;59641;45.188;5.712;2022-10-23T00:20:06;99286.03;;;19.58;60.65
71795;BME280;59641;45.188;5.712;2022-10-23T00:22:32;99292.28;;;19.59;60.99
71795;BME280;59641;45.188;5.712;2022-10-23T00:24:57;99298.84;;;19.58;60.72
71795;BME280;59641;45.188;5.712;2022-10-23T00:27:26;99290.16;;;19.56;60.43
71795;BME280;59641;45.188;5.712;2022-10-23T00:29:52;99274.88;;;19.55;60.58
71795;BME280;59641;45.188;5.712;2022-10-23T00:32:18;99295.84;;;19.54;60.66
71795;BME280;59641;45.188;5.712;2022-10-23T00:34:43;99295.84;;;19.54;60.43
71795;BME280;59641;45.188;5.712;2022-10-23T00:37:08;99289.59;;;19.54;60.79
71795;BME280;59641;45.188;5.712;2022-10-23T00:39:34;99280.63;;;19.53;61.07
71795;BME280;59641;45.188;5.712;2022-10-23T00:42:00;99285.25;;;19.53;60.78
71795;BME280;59641;45.188;5.712;2022-10-23T00:46:55;99285.28;;;19.48;60.76
71795;BME280;59641;45.188;5.712;2022-10-23T00:49:21;99275.22;;;19.48;60.37
71795;BME280;59641;45.188;5.712;2022-10-23T00:51:52;99277.94;;;19.48;60.27
71795;BME280;59641;45.188;5.712;2022-10-23T00:54:21;99280.66;;;19.48;60.43
71795;BME280;59641;45.188;5.712;2022-10-23T00:56:48;99274.38;;;19.48;60.07
71795;BME280;59641;45.188;5.712;2022-10-23T00:59:14;99270.31;;;19.45;60.76
71795;BME280;59641;45.188;5.712;2022-10-23T01:01:44;99272.22;;;19.45;60.53
71795;BME280;59641;45.188;5.712;2022-10-23T01:04:09;99274.41;;;19.43;60.08
71795;BME280;59641;45.188;5.712;2022-10-23T01:06:36;99254.84;;;19.41;60.56
71795;BME280;59641;45.188;5.712;2022-10-23T01:09:17;99272.25;;;19.40;60.52
71795;BME280;59641;45.188;5.712;2022-10-23T01:11:54;99261.94;;;19.36;60.45
71795;BME280;59641;45.188;5.712;2022-10-23T01:14:32;99263.31;;;19.34;60.59
71795;BME280;59641;45.188;5.712;2022-10-23T01:23:25;99264.75;;;19.16;60.39
71795;BME280;59641;45.188;5.712;2022-10-23T01:28:48;99244.38;;;19.13;60.76
71795;BME280;59641;45.188;5.712;2022-10-23T01:31:20;99258.81;;;19.09;60.50
71795;BME280;59641;45.188;5.712;2022-10-23T01:33:54;99264.25;;;19.09;60.64
71795;BME280;59641;45.188;5.712;2022-10-23T01:36:33;99238.97;;;19.08;60.80
71795;BME280;59641;45.188;5.712;2022-10-23T01:39:06;99261.81;;;19.07;60.45
71795;BME280;59641;45.188;5.712;2022-10-23T01:44:40;99240.91;;;19.03;60.56
71795;BME280;59641;45.188;5.712;2022-10-23T01:47:10;99259.94;;;19.03;61.05
71795;BME280;59641;45.188;5.712;2022-10-23T01:49:39;99250.94;;;19.02;60.67
71795;BME280;59641;45.188;5.712;2022-10-23T01:52:11;99231.66;;;18.99;60.73
71795;BME280;59641;45.188;5.712;2022-10-23T01:54:41;99229.22;;;18.97;61.10
71795;BME280;59641;45.188;5.712;2022-10-23T01:57:10;99218.34;;;18.97;61.28
71795;BME280;59641;45.188;5.712;2022-10-23T01:59:41;99215.63;;;18.97;61.09
71795;BME280;59641;45.188;5.712;2022-10-23T02:02:10;99222.69;;;18.98;61.01
71795;BME280;59641;45.188;5.712;2022-10-23T02:05:02;99209.91;;;18.99;61.03
71795;BME280;59641;45.188;5.712;2022-10-23T02:07:31;99204.75;;;18.97;61.04
71795;BME280;59641;45.188;5.712;2022-10-23T02:13:08;99209.63;;;18.95;60.28
71795;BME280;59641;45.188;5.712;2022-10-23T02:15:37;99209.94;;;18.93;60.56
71795;BME280;59641;45.188;5.712;2022-10-23T02:18:19;99196.88;;;18.90;60.60
71795;BME280;59641;45.188;5.712;2022-10-23T02:20:54;99206.13;;;18.89;60.72
71795;BME280;59641;45.188;5.712;2022-10-23T02:26:17;99215.41;;;18.88;60.55
71795;BME280;59641;45.188;5.712;2022-10-23T02:28:51;99230.06;;;18.87;60.39
71795;BME280;59641;45.188;5.712;2022-10-23T02:31:21;99226.53;;;18.87;60.75
71795;BME280;59641;45.188;5.712;2022-10-23T02:33:53;99216.22;;;18.84;60.77
71795;BME280;59641;45.188;5.712;2022-10-23T02:36:19;99218.94;;;18.84;60.61
71795;BME280;59641;45.188;5.712;2022-10-23T02:38:46;99210.78;;;18.84;60.70
71795;BME280;59641;45.188;5.712;2022-10-23T02:44:27;99195.00;;;18.81;61.10
71795;BME280;59641;45.188;5.712;2022-10-23T02:53:17;99205.34;;;18.73;61.02
71795;BME280;59641;45.188;5.712;2022-10-23T02:58:50;99194.50;;;18.68;60.56
71795;BME280;59641;45.188;5.712;2022-10-23T03:01:25;99194.78;;;18.67;60.64
71795;BME280;59641;45.188;5.712;2022-10-23T03:03:55;99196.66;;;18.66;60.90
71795;BME280;59641;45.188;5.712;2022-10-23T03:06:22;99196.97;;;18.65;60.69
71795;BME280;59641;45.188;5.712;2022-10-23T03:08:58;99163.00;;;18.62;60.46
71795;BME280;59641;45.188;5.712;2022-10-23T03:11:24;99183.09;;;18.61;60.60
71795;BME280;59641;45.188;5.712;2022-10-23T03:13:50;99174.44;;;18.59;60.44
71795;BME280;59641;45.188;5.712;2022-10-23T03:16:16;99180.97;;;18.53;59.93
71795;BME280;59641;45.188;5.712;2022-10-23T03:19:07;99177.16;;;18.49;60.32
71795;BME280;59641;45.188;5.712;2022-10-23T03:21:35;99166.06;;;18.45;60.67
71795;BME280;59641;45.188;5.712;2022-10-23T03:24:01;99179.63;;;18.45;60.66
71795;BME280;59641;45.188;5.712;2022-10-23T03:26:26;99180.72;;;18.44;60.45
71795;BME280;59641;45.188;5.712;2022-10-23T03:28:51;99166.88;;;18.41;60.54
71795;BME280;59641;45.188;5.712;2022-10-23T03:31:17;99170.66;;;18.40;60.88
71795;BME280;59641;45.188;5.712;2022-10-23T03:33:42;99165.22;;;18.40;60.99
71795;BME280;59641;45.188;5.712;2022-10-23T03:36:08;99164.16;;;18.41;60.95
71795;BME280;59641;45.188;5.712;2022-10-23T03:38:34;99163.34;;;18.40;60.59
71795;BME280;59641;45.188;5.712;2022-10-23T03:40:59;99154.38;;;18.40;60.60
71795;BME280;59641;45.188;5.712;2022-10-23T03:43:24;99154.09;;;18.41;60.74
71795;BME280;59641;45.188;5.712;2022-10-23T03:45:50;99180.47;;;18.41;60.18
71795;BME280;59641;45.188;5.712;2022-10-23T03:48:16;99160.38;;;18.37;60.49
71795;BME280;59641;45.188;5.712;2022-10-23T03:50:42;99169.06;;;18.34;60.56
71795;BME280;59641;45.188;5.712;2022-10-23T03:53:07;99168.53;;;18.31;60.26
71795;BME280;59641;45.188;5.712;2022-10-23T03:55:32;99166.38;;;18.28;60.31
71795;BME280;59641;45.188;5.712;2022-10-23T03:57:58;99172.34;;;18.30;60.51
71795;BME280;59641;45.188;5.712;2022-10-23T04:00:23;99173.41;;;18.29;60.70
71795;BME280;59641;45.188;5.712;2022-10-23T04:02:49;99163.34;;;18.30;60.34
71795;BME280;59641;45.188;5.712;2022-10-23T04:05:14;99173.16;;;18.31;60.73
71795;BME280;59641;45.188;5.712;2022-10-23T04:07:40;99157.66;;;18.31;60.61
71795;BME280;59641;45.188;5.712;2022-10-23T04:10:06;99178.28;;;18.33;60.44
71795;BME280;59641;45.188;5.712;2022-10-23T04:12:32;99183.47;;;18.34;60.53
71795;BME280;59641;45.188;5.712;2022-10-23T04:14:57;99192.41;;;18.35;59.88
71795;BME280;59641;45.188;5.712;2022-10-23T04:17:23;99176.41;;;18.33;60.37
71795;BME280;59641;45.188;5.712;2022-10-23T04:19:48;99178.59;;;18.31;60.49
71795;BME280;59641;45.188;5.712;2022-10-23T04:22:13;99196.78;;;18.30;60.92
71795;BME280;59641;45.188;5.712;2022-10-23T04:24:39;99188.09;;;18.28;60.66
71795;BME280;59641;45.188;5.712;2022-10-23T04:27:09;99207.13;;;18.28;61.38
71795;BME280;59641;45.188;5.712;2022-10-23T04:29:34;99190.81;;;18.28;61.86
71795;BME280;59641;45.188;5.712;2022-10-23T04:32:00;99200.03;;;18.27;61.27
71795;BME280;59641;45.188;5.712;2022-10-23T04:34:25;99212.56;;;18.23;61.77
71795;BME280;59641;45.188;5.712;2022-10-23T04:36:51;99184.56;;;18.23;61.92
71795;BME280;59641;45.188;5.712;2022-10-23T04:39:16;99186.75;;;18.21;61.68
71795;BME280;59641;45.188;5.712;2022-10-23T04:41:42;99197.88;;;18.19;61.66
71795;BME280;59641;45.188;5.712;2022-10-23T04:44:08;99201.41;;;18.20;61.89
71795;BME280;59641;45.188;5.712;2022-10-23T04:46:33;99190.56;;;18.20;61.93
71795;BME280;59641;45.188;5.712;2022-10-23T04:49:00;99191.34;;;18.20;62.13
71795;BME280;59641;45.188;5.712;2022-10-23T04:51:25;99181.59;;;18.19;62.11
71795;BME280;59641;45.188;5.712;2022-10-23T04:53:51;99202.78;;;18.17;61.69
71795;BME280;59641;45.188;5.712;2022-10-23T04:56:16;99187.28;;;18.18;61.57
71795;BME280;59641;45.188;5.712;2022-10-23T04:58:42;99203.88;;;18.16;62.01
71795;BME280;59641;45.188;5.712;2022-10-23T05:01:08;99206.03;;;18.14;61.63
71795;BME280;59641;45.188;5.712;2022-10-23T05:03:36;99181.31;;;18.16;61.76
71795;BME280;59641;45.188;5.712;2022-10-23T05:06:02;99202.78;;;18.17;61.40
71795;BME280;59641;45.188;5.712;2022-10-23T05:08:28;99171.81;;;18.18;61.75
71795;BME280;59641;45.188;5.712;2022-10-23T05:10:53;99184.31;;;18.19;61.56
71795;BME280;59641;45.188;5.712;2022-10-23T05:13:19;99158.78;;;18.20;61.63
71795;BME280;59641;45.188;5.712;2022-10-23T05:15:49;99175.91;;;18.21;61.75
71795;BME280;59641;45.188;5.712;2022-10-23T05:18:26;99180.22;;;18.22;61.35
71795;BME280;59641;45.188;5.712;2022-10-23T05:21:38;99194.06;;;18.20;61.34
71795;BME280;59641;45.188;5.712;2022-10-23T05:23:45;99194.63;;;18.22;61.92
71795;BME280;59641;45.188;5.712;2022-10-23T05:26:11;99187.81;;;18.25;61.68
71795;BME280;59641;45.188;5.712;2022-10-23T05:28:36;99193.25;;;18.25;61.70
71795;BME280;59641;45.188;5.712;2022-10-23T05:31:03;99170.72;;;18.24;61.80
71795;BME280;59641;45.188;5.712;2022-10-23T05:33:30;99188.63;;;18.25;61.89
71795;BME280;59641;45.188;5.712;2022-10-23T05:35:56;99197.63;;;18.26;61.69
71795;BME280;59641;45.188;5.712;2022-10-23T05:38:22;99174.53;;;18.23;61.66
71795;BME280;59641;45.188;5.712;2022-10-23T05:40:50;99201.69;;;18.23;61.45
71795;BME280;59641;45.188;5.712;2022-10-23T05:43:16;99172.63;;;18.24;61.36
71795;BME280;59641;45.188;5.712;2022-10-23T05:45:41;99193.25;;;18.25;61.50
71795;BME280;59641;45.188;5.712;2022-10-23T05:48:07;99176.97;;;18.25;61.27
71795;BME280;59641;45.188;5.712;2022-10-23T05:50:35;99194.34;;;18.24;61.68
71795;BME280;59641;45.188;5.712;2022-10-23T05:53:01;99181.31;;;18.26;61.53
71795;BME280;59641;45.188;5.712;2022-10-23T05:55:26;99194.34;;;18.29;61.29
71795;BME280;59641;45.188;5.712;2022-10-23T05:57:51;99178.84;;;18.29;61.39
71795;BME280;59641;45.188;5.712;2022-10-23T06:00:17;99182.38;;;18.30;61.39
71795;BME280;59641;45.188;5.712;2022-10-23T06:02:42;99167.44;;;18.27;61.80
71795;BME280;59641;45.188;5.712;2022-10-23T06:05:08;99187.28;;;18.28;61.54
71795;BME280;59641;45.188;5.712;2022-10-23T06:07:33;99179.94;;;18.28;61.66
71795;BME280;59641;45.188;5.712;2022-10-23T06:09:59;99197.06;;;18.29;61.47
71795;BME280;59641;45.188;5.712;2022-10-23T06:12:24;99172.34;;;18.30;61.54
71795;BME280;59641;45.188;5.712;2022-10-23T06:14:49;99193.25;;;18.30;61.45
71795;BME280;59641;45.188;5.712;2022-10-23T06:17:15;99180.50;;;18.30;61.39
71795;BME280;59641;45.188;5.712;2022-10-23T06:19:42;99188.66;;;18.30;61.45
71795;BME280;59641;45.188;5.712;2022-10-23T06:22:08;99177.78;;;18.30;61.44
71795;BME280;59641;45.188;5.712;2022-10-23T06:24:33;99194.88;;;18.31;61.97
71795;BME280;59641;45.188;5.712;2022-10-23T06:26:59;99182.38;;;18.30;61.40
71795;BME280;59641;45.188;5.712;2022-10-23T06:29:24;99175.56;;;18.33;61.69
71795;BME280;59641;45.188;5.712;2022-10-23T06:31:50;99180.75;;;18.34;61.55
71795;BME280;59641;45.188;5.712;2022-10-23T06:34:15;99187.81;;;18.35;61.24
71795;BME280;59641;45.188;5.712;2022-10-23T06:36:40;99178.56;;;18.36;61.39
71795;BME280;59641;45.188;5.712;2022-10-23T06:39:06;99171.53;;;18.35;60.85
71795;BME280;59641;45.188;5.712;2022-10-23T06:41:32;99195.97;;;18.35;61.71
71795;BME280;59641;45.188;5.712;2022-10-23T06:43:57;99177.75;;;18.36;61.68
71795;BME280;59641;45.188;5.712;2022-10-23T06:46:23;99199.19;;;18.37;61.09
71795;BME280;59641;45.188;5.712;2022-10-23T06:48:51;99188.06;;;18.39;61.07
71795;BME280;59641;45.188;5.712;2022-10-23T06:51:16;99203.56;;;18.38;60.40
71795;BME280;59641;45.188;5.712;2022-10-23T06:53:43;99165.22;;;18.40;60.66
71795;BME280;59641;45.188;5.712;2022-10-23T06:56:09;99193.25;;;18.40;60.36
71795;BME280;59641;45.188;5.712;2022-10-23T06:58:37;99164.72;;;18.43;60.61
71795;BME280;59641;45.188;5.712;2022-10-23T07:01:05;99165.78;;;18.42;60.14
71795;BME280;59641;45.188;5.712;2022-10-23T07:03:32;99159.28;;;18.43;60.13
71795;BME280;59641;45.188;5.712;2022-10-23T07:06:00;99162.00;;;18.43;60.33
71795;BME280;59641;45.188;5.712;2022-10-23T07:08:26;99163.88;;;18.42;59.64
71795;BME280;59641;45.188;5.712;2022-10-23T07:10:52;99157.91;;;18.40;59.56
71795;BME280;59641;45.188;5.712;2022-10-23T07:13:17;99163.06;;;18.42;59.59
71795;BME280;59641;45.188;5.712;2022-10-23T07:15:43;99129.66;;;18.41;59.81
71795;BME280;59641;45.188;5.712;2022-10-23T07:18:08;99166.06;;;18.40;59.20
71795;BME280;59641;45.188;5.712;2022-10-23T07:20:39;99149.78;;;18.40;59.54
71795;BME280;59641;45.188;5.712;2022-10-23T07:23:05;99165.22;;;18.40;59.68
71795;BME280;59641;45.188;5.712;2022-10-23T07:25:31;99163.63;;;18.39;59.57
71795;BME280;59641;45.188;5.712;2022-10-23T07:27:57;99159.53;;;18.41;60.08
71795;BME280;59641;45.188;5.712;2022-10-23T07:30:23;99156.56;;;18.43;59.93
71795;BME280;59641;45.188;5.712;2022-10-23T07:32:48;99149.75;;;18.45;59.65
71795;BME280;59641;45.188;5.712;2022-10-23T07:35:14;99145.38;;;18.49;59.83
71795;BME280;59641;45.188;5.712;2022-10-23T07:37:39;99160.59;;;18.50;59.58
71795;BME280;59641;45.188;5.712;2022-10-23T07:40:06;99147.56;;;18.52;59.69
71795;BME280;59641;45.188;5.712;2022-10-23T07:42:32;99144.53;;;18.54;59.23
71795;BME280;59641;45.188;5.712;2022-10-23T07:45:04;99125.25;;;18.56;59.76
71795;BME280;59641;45.188;5.712;2022-10-23T07:47:36;99158.66;;;18.56;58.79
71795;BME280;59641;45.188;5.712;2022-10-23T07:50:03;99153.50;;;18.60;59.67
71795;BME280;59641;45.188;5.712;2022-10-23T07:52:28;99166.00;;;18.61;59.14
71795;BME280;59641;45.188;5.712;2022-10-23T07:54:54;99161.66;;;18.60;59.34
71795;BME280;59641;45.188;5.712;2022-10-23T07:57:19;99159.19;;;18.63;59.98
71795;BME280;59641;45.188;5.712;2022-10-23T07:59:45;99175.22;;;18.65;59.69
71795;BME280;59641;45.188;5.712;2022-10-23T08:02:12;99146.94;;;18.66;59.59
71795;BME280;59641;45.188;5.712;2022-10-23T08:04:38;99154.56;;;18.69;59.51
71795;BME280;59641;45.188;5.712;2022-10-23T08:07:04;99150.75;;;18.70;59.38
71795;BME280;59641;45.188;5.712;2022-10-23T08:09:30;99146.09;;;18.70;59.90
71795;BME280;59641;45.188;5.712;2022-10-23T08:11:55;99151.53;;;18.70;59.24
71795;BME280;59641;45.188;5.712;2022-10-23T08:14:21;99157.78;;;18.71;59.38
71795;BME280;59641;45.188;5.712;2022-10-23T08:16:46;99149.66;;;18.66;58.58
71795;BME280;59641;45.188;5.712;2022-10-23T08:19:12;99144.53;;;18.64;58.97
71795;BME280;59641;45.188;5.712;2022-10-23T08:21:37;99136.09;;;18.61;59.08
71795;BME280;59641;45.188;5.712;2022-10-23T08:24:03;99145.88;;;18.57;59.17
71795;BME280;59641;45.188;5.712;2022-10-23T08:26:29;99146.97;;;18.61;59.19
71795;BME280;59641;45.188;5.712;2022-10-23T08:28:55;99129.28;;;18.63;59.52
71795;BME280;59641;45.188;5.712;2022-10-23T08:31:22;99169.78;;;18.65;59.35
71795;BME280;59641;45.188;5.712;2022-10-23T08:33:48;99149.13;;;18.69;59.62
71795;BME280;59641;45.188;5.712;2022-10-23T08:36:17;99150.47;;;18.71;59.68
71795;BME280;59641;45.188;5.712;2022-10-23T08:38:44;99171.09;;;18.72;59.27
71795;BME280;59641;45.188;5.712;2022-10-23T08:41:26;99158.88;;;18.75;59.89
71795;BME280;59641;45.188;5.712;2022-10-23T08:44:04;99159.44;;;18.77;59.91
71795;BME280;59641;45.188;5.712;2022-10-23T08:46:38;99169.22;;;18.78;60.16
71795;BME280;59641;45.188;5.712;2022-10-23T08:51:45;99166.75;;;18.82;60.52
71795;BME280;59641;45.188;5.712;2022-10-23T08:56:48;99159.97;;;18.79;60.35
71795;BME280;59641;45.188;5.712;2022-10-23T08:59:26;99177.09;;;18.80;60.31
71795;BME280;59641;45.188;5.712;2022-10-23T09:02:14;99166.50;;;18.83;59.98
71795;BME280;59641;45.188;5.712;2022-10-23T09:04:44;99169.22;;;18.83;60.14
71795;BME280;59641;45.188;5.712;2022-10-23T09:12:29;99162.41;;;18.81;60.52
71795;BME280;59641;45.188;5.712;2022-10-23T09:17:48;99154.47;;;18.89;60.55
71795;BME280;59641;45.188;5.712;2022-10-23T09:20:27;99156.09;;;18.90;60.46
71795;BME280;59641;45.188;5.712;2022-10-23T09:23:14;99164.78;;;18.92;60.75
71795;BME280;59641;45.188;5.712;2022-10-23T09:25:41;99187.38;;;18.93;60.62
71795;BME280;59641;45.188;5.712;2022-10-23T09:28:17;99162.34;;;18.96;60.84
71795;BME280;59641;45.188;5.712;2022-10-23T09:30:43;99166.13;;;19.00;60.53
71795;BME280;59641;45.188;5.712;2022-10-23T09:33:17;99176.97;;;19.05;60.49
71795;BME280;59641;45.188;5.712;2022-10-23T09:41:36;99175.31;;;19.09;59.75
71795;BME280;59641;45.188;5.712;2022-10-23T09:44:23;99178.03;;;19.09;58.98
71795;BME280;59641;45.188;5.712;2022-10-23T09:49:24;99166.06;;;19.10;58.93
71795;BME280;59641;45.188;5.712;2022-10-23T09:54:37;99187.00;;;19.15;59.28
71795;BME280;59641;45.188;5.712;2022-10-23T09:59:51;99183.44;;;19.20;58.61
71795;BME280;59641;45.188;5.712;2022-10-23T10:02:29;99177.69;;;19.21;58.80
71795;BME280;59641;45.188;5.712;2022-10-23T10:04:56;99178.75;;;19.25;59.05
71795;BME280;59641;45.188;5.712;2022-10-23T10:07:27;99190.19;;;19.27;58.89
71795;BME280;59641;45.188;5.712;2022-10-23T10:09:55;99175.19;;;19.30;59.30
71795;BME280;59641;45.188;5.712;2022-10-23T10:12:48;99189.56;;;19.35;59.47
71795;BME280;59641;45.188;5.712;2022-10-23T10:15:29;99192.25;;;19.41;59.85
71795;BME280;59641;45.188;5.712;2022-10-23T10:18:14;99189.50;;;19.46;59.75
71795;BME280;59641;45.188;5.712;2022-10-23T10:30:14;99191.84;;;19.63;59.70
71795;BME280;59641;45.188;5.712;2022-10-23T10:32:59;99194.28;;;19.64;59.71
71795;BME280;59641;45.188;5.712;2022-10-23T10:49:26;99159.47;;;19.95;58.66
71795;BME280;59641;45.188;5.712;2022-10-23T10:54:32;99155.78;;;20.10;58.24
71795;BME280;59641;45.188;5.712;2022-10-23T10:57:08;99151.38;;;20.14;57.81
71795;BME280;59641;45.188;5.712;2022-10-23T10:59:39;99146.19;;;20.18;58.04
71795;BME280;59641;45.188;5.712;2022-10-23T11:02:28;99142.28;;;20.24;58.02
71795;BME280;59641;45.188;5.712;2022-10-23T11:07:51;99132.13;;;20.35;57.25
71795;BME280;59641;45.188;5.712;2022-10-23T11:10:18;99119.44;;;20.44;57.96
71795;BME280;59641;45.188;5.712;2022-10-23T11:12:45;99119.91;;;20.51;56.87
71795;BME280;59641;45.188;5.712;2022-10-23T11:15:15;99115.47;;;20.60;56.93
71795;BME280;59641;45.188;5.712;2022-10-23T11:17:51;99104.13;;;20.72;56.12
71795;BME280;59641;45.188;5.712;2022-10-23T11:23:41;99099.75;;;20.95;56.34
71795;BME280;59641;45.188;5.712;2022-10-23T11:26:40;99099.00;;;21.09;56.44
71795;BME280;59641;45.188;5.712;2022-10-23T11:29:38;99099.66;;;21.19;55.71
71795;BME280;59641;45.188;5.712;2022-10-23T11:32:17;99093.16;;;21.34;54.85
71795;BME280;59641;45.188;5.712;2022-10-23T11:37:24;99090.41;;;21.53;54.00
71795;BME280;59641;45.188;5.712;2022-10-23T11:40:26;99080.13;;;21.64;54.73
71795;BME280;59641;45.188;5.712;2022-10-23T11:43:28;99071.44;;;21.76;55.03
71795;BME280;59641;45.188;5.712;2022-10-23T11:46:41;99069.66;;;21.85;54.55
71795;BME280;59641;45.188;5.712;2022-10-23T11:48:44;99059.13;;;21.92;54.72
71795;BME280;59641;45.188;5.712;2022-10-23T11:51:40;99057.91;;;21.98;54.81
71795;BME280;59641;45.188;5.712;2022-10-23T11:59:51;99040.53;;;22.22;53.13
71795;BME280;59641;45.188;5.712;2022-10-23T12:02:36;99038.09;;;22.34;49.91
71795;BME280;59641;45.188;5.712;2022-10-23T12:05:30;99029.13;;;22.56;51.68
71795;BME280;59641;45.188;5.712;2022-10-23T12:08:19;99011.91;;;22.69;51.03
71795;BME280;59641;45.188;5.712;2022-10-23T12:10:52;99001.56;;;22.80;50.28
71795;BME280;59641;45.188;5.712;2022-10-23T12:13:44;99003.22;;;22.90;48.68
71795;BME280;59641;45.188;5.712;2022-10-23T12:18:55;98990.06;;;23.14;44.88
71795;BME280;59641;45.188;5.712;2022-10-23T12:21:26;98983.25;;;23.34;41.63
71795;BME280;59641;45.188;5.712;2022-10-23T12:29:32;98970.50;;;24.01;42.83
71795;BME280;59641;45.188;5.712;2022-10-23T12:38:25;98967.97;;;24.31;42.73
71795;BME280;59641;45.188;5.712;2022-10-23T12:40:55;98972.19;;;24.37;43.12
71795;BME280;59641;45.188;5.712;2022-10-23T12:43:32;98961.38;;;24.40;44.05
71795;BME280;59641;45.188;5.712;2022-10-23T12:46:06;98951.69;;;24.43;44.13
71795;BME280;59641;45.188;5.712;2022-10-23T12:48:52;98953.00;;;24.45;44.15
71795;BME280;59641;45.188;5.712;2022-10-23T12:51:27;98956.25;;;24.48;44.00
71795;BME280;59641;45.188;5.712;2022-10-23T12:53:53;98956.75;;;24.50;41.82
71795;BME280;59641;45.188;5.712;2022-10-23T12:56:19;98957.38;;;24.55;42.51
71795;BME280;59641;45.188;5.712;2022-10-23T12:58:49;98941.41;;;24.57;43.07
71795;BME280;59641;45.188;5.712;2022-10-23T13:01:30;98937.22;;;24.60;42.76
71795;BME280;59641;45.188;5.712;2022-10-23T13:04:21;98934.97;;;24.62;42.30
71795;BME280;59641;45.188;5.712;2022-10-23T13:06:43;98939.00;;;24.64;37.00
71795;BME280;59641;45.188;5.712;2022-10-23T13:09:22;98941.56;;;24.70;42.77
71795;BME280;59641;45.188;5.712;2022-10-23T13:11:50;98930.28;;;24.71;41.30
71795;BME280;59641;45.188;5.712;2022-10-23T13:14:37;98932.84;;;24.76;39.87
71795;BME280;59641;45.188;5.712;2022-10-23T13:17:07;98919.94;;;24.85;40.44
71795;BME280;59641;45.188;5.712;2022-10-23T13:19:36;98897.94;;;24.94;37.23
71795;BME280;59641;45.188;5.712;2022-10-23T13:22:22;98888.06;;;25.11;38.52
71795;BME280;59641;45.188;5.712;2022-10-23T13:24:51;98900.47;;;25.25;36.58
71795;BME280;59641;45.188;5.712;2022-10-23T13:27:32;98892.03;;;25.39;39.14
71795;BME280;59641;45.188;5.712;2022-10-23T13:29:58;98883.41;;;25.49;37.49
71795;BME280;59641;45.188;5.712;2022-10-23T13:32:27;98880.94;;;25.57;36.59
71795;BME280;59641;45.188;5.712;2022-10-23T13:34:54;98868.63;;;25.63;36.06
71795;BME280;59641;45.188;5.712;2022-10-23T13:37:25;98868.94;;;25.70;35.81
71795;BME280;59641;45.188;5.712;2022-10-23T13:40:04;98862.56;;;25.78;37.56
71795;BME280;59641;45.188;5.712;2022-10-23T13:42:37;98873.81;;;25.85;36.72
71795;BME280;59641;45.188;5.712;2022-10-23T13:45:02;98866.09;;;25.87;35.65
71795;BME280;59641;45.188;5.712;2022-10-23T13:47:28;98866.88;;;25.88;35.47
71795;BME280;59641;45.188;5.712;2022-10-23T13:49:53;98861.88;;;25.90;37.44
71795;BME280;59641;45.188;5.712;2022-10-23T13:52:20;98876.09;;;25.92;38.53
71795;BME280;59641;45.188;5.712;2022-10-23T13:54:47;98869.00;;;25.91;37.87
71795;BME280;59641;45.188;5.712;2022-10-23T13:57:14;98866.09;;;25.87;38.32
71795;BME280;59641;45.188;5.712;2022-10-23T13:59:41;98856.88;;;25.83;38.47
71795;BME280;59641;45.188;5.712;2022-10-23T14:02:20;98862.56;;;25.78;36.88
71795;BME280;59641;45.188;5.712;2022-10-23T14:04:48;98863.38;;;25.79;38.65
71795;BME280;59641;45.188;5.712;2022-10-23T14:07:14;98866.78;;;25.76;38.70
71795;BME280;59641;45.188;5.712;2022-10-23T14:09:40;98863.91;;;25.72;40.00
71795;BME280;59641;45.188;5.712;2022-10-23T14:12:08;98850.38;;;25.67;39.42
71795;BME280;59641;45.188;5.712;2022-10-23T14:14:36;98853.75;;;25.64;38.96
71795;BME280;59641;45.188;5.712;2022-10-23T14:17:02;98857.97;;;25.61;37.84
71795;BME280;59641;45.188;5.712;2022-10-23T14:19:28;98857.66;;;25.63;38.78
71795;BME280;59641;45.188;5.712;2022-10-23T14:21:55;98857.97;;;25.61;38.36
71795;BME280;59641;45.188;5.712;2022-10-23T14:24:21;98857.06;;;25.57;36.05
71795;BME280;59641;45.188;5.712;2022-10-23T14:26:47;98856.06;;;25.62;36.67
71795;BME280;59641;45.188;5.712;2022-10-23T14:29:12;98863.75;;;25.68;38.77
71795;BME280;59641;45.188;5.712;2022-10-23T14:31:38;98864.56;;;25.69;39.62
71795;BME280;59641;45.188;5.712;2022-10-23T14:34:03;98864.09;;;25.67;38.04
71795;BME280;59641;45.188;5.712;2022-10-23T14:37:16;98858.59;;;25.67;36.84
71795;BME280;59641;45.188;5.712;2022-10-23T14:39:31;98872.00;;;25.68;37.27
71795;BME280;59641;45.188;5.712;2022-10-23T14:41:56;98881.38;;;25.67;38.74
71795;BME280;59641;45.188;5.712;2022-10-23T14:44:22;98871.88;;;25.65;36.41
71795;BME280;59641;45.188;5.712;2022-10-23T14:46:47;98868.44;;;25.68;34.57
71795;BME280;59641;45.188;5.712;2022-10-23T14:49:13;98871.63;;;25.79;33.21
71795;BME280;59641;45.188;5.712;2022-10-23T14:51:42;98870.94;;;25.90;35.21
71795;BME280;59641;45.188;5.712;2022-10-23T14:54:11;98873.28;;;26.01;32.62
71795;BME280;59641;45.188;5.712;2022-10-23T14:56:38;98874.03;;;26.10;33.44
71795;BME280;59641;45.188;5.712;2022-10-23T14:59:25;98884.63;;;26.20;34.17
71795;BME280;59641;45.188;5.712;2022-10-23T15:01:50;98882.94;;;26.28;33.99
71795;BME280;59641;45.188;5.712;2022-10-23T15:04:19;98887.44;;;26.32;34.81
71795;BME280;59641;45.188;5.712;2022-10-23T15:06:45;98891.25;;;26.40;33.73
71795;BME280;59641;45.188;5.712;2022-10-23T15:12:31;98908.59;;;26.53;36.93